Time;durP1;ratioP1;P1;durP2;ratioP2;P2;SDS_P1;SDS_P2;PMS_P1;PMS_P2;Temp;Humidity;BMP_temperature;BMP_pressure;BME280_temperature;BME280_humidity;BME280_pressure;Samples;Min_cycle;Max_cycle;Signal;HPM_P1;HPM_P2
2021/06/26 00:03:37;;;;;;;14.88;13.38;;;;;;;18.88;68.60;100420.63;10344750;28;20054;-56
2021/06/26 00:08:38;;;;;;;14.60;13.10;;;;;;;18.87;68.51;100432.44;10348491;28;20060;-58
2021/06/26 00:13:40;;;;;;;14.32;12.93;;;;;;;18.82;68.69;100440.19;10346158;28;20419;-56
2021/06/26 00:18:41;;;;;;;15.32;12.82;;;;;;;18.75;68.87;100441.88;10353758;28;20061;-56
2021/06/26 00:23:43;;;;;;;14.13;12.80;;;;;;;18.73;69.22;100445.59;10359364;28;20069;-57
2021/06/26 00:28:50;;;;;;;13.55;12.20;;;;;;;18.73;69.42;100445.59;10349644;28;20046;-56
2021/06/26 00:33:51;;;;;;;13.65;12.23;;;;;;;18.66;69.41;100433.81;10345297;28;20538;-56
2021/06/26 00:38:53;;;;;;;13.27;12.18;;;;;;;18.58;70.20;100441.91;10341784;28;20059;-55
2021/06/26 00:43:54;;;;;;;14.73;13.32;;;;;;;18.56;70.42;100452.03;10358061;28;20054;-56
2021/06/26 00:48:56;;;;;;;14.57;13.10;;;;;;;18.52;70.10;100446.13;10354994;28;20054;-55
2021/06/26 00:53:58;;;;;;;14.00;12.80;;;;;;;18.49;70.26;100445.63;10346708;28;20057;-57
2021/06/26 00:58:59;;;;;;;14.23;12.98;;;;;;;18.42;70.22;100441.94;10353328;28;20049;-56
2021/06/26 01:04:01;;;;;;;14.98;13.55;;;;;;;18.28;70.52;100435.38;10344967;28;20054;-56
2021/06/26 01:09:03;;;;;;;14.52;13.07;;;;;;;18.27;70.47;100439.06;10346829;28;20054;-57
2021/06/26 01:14:04;;;;;;;14.93;13.43;;;;;;;18.25;70.66;100441.94;10337224;28;20849;-57
2021/06/26 01:19:06;;;;;;;15.38;14.02;;;;;;;18.19;70.98;100432.72;10344719;28;20046;-57
2021/06/26 01:24:08;;;;;;;15.02;13.52;;;;;;;18.18;71.17;100431.00;10355116;28;20504;-56
2021/06/26 01:29:10;;;;;;;14.30;13.00;;;;;;;18.16;71.08;100437.56;10359765;28;20546;-56
2021/06/26 01:34:11;;;;;;;14.00;12.65;;;;;;;18.12;71.31;100428.13;10358081;28;20046;-57
2021/06/26 01:39:13;;;;;;;15.07;13.65;;;;;;;18.07;71.23;100423.25;10358620;28;20057;-56
2021/06/26 01:44:15;;;;;;;14.57;13.07;;;;;;;18.04;71.78;100422.78;10364764;28;20054;-57
2021/06/26 01:49:18;;;;;;;14.68;13.38;;;;;;;17.98;71.57;100422.41;10354184;28;20054;-56
2021/06/26 01:54:19;;;;;;;15.00;13.50;;;;;;;17.93;71.97;100413.19;10358758;28;20666;-58
2021/06/26 01:59:21;;;;;;;15.43;13.82;;;;;;;17.71;71.96;100391.22;10352447;28;20080;-56
2021/06/26 02:04:22;;;;;;;15.30;13.90;;;;;;;17.86;72.77;100421.03;10351969;28;20726;-59
2021/06/26 02:09:24;;;;;;;16.45;14.93;;;;;;;17.79;72.79;100420.00;10352048;28;20057;-56
2021/06/26 02:14:25;;;;;;;16.02;14.70;;;;;;;17.78;73.05;100423.72;10344512;28;20053;-58
2021/06/26 02:19:27;;;;;;;16.25;14.80;;;;;;;17.73;72.99;100420.69;10341134;28;20060;-56
2021/06/26 02:24:29;;;;;;;16.38;14.75;;;;;;;17.71;73.34;100428.09;10338191;28;20494;-56
2021/06/26 02:29:31;;;;;;;18.13;15.30;;;;;;;17.68;73.46;100434.63;10351897;28;20053;-56
2021/06/26 02:34:33;;;;;;;16.50;14.93;;;;;;;17.62;74.02;100436.13;10350266;28;20364;-56
2021/06/26 02:39:34;;;;;;;16.88;15.27;;;;;;;17.59;74.23;100439.16;10362330;28;20045;-57
2021/06/26 02:44:36;;;;;;;17.27;15.50;;;;;;;17.58;74.22;100431.25;10356203;28;20395;-57
2021/06/26 02:49:37;;;;;;;18.70;15.15;;;;;;;17.46;74.60;100428.06;10351054;28;20152;-56
2021/06/26 02:54:39;;;;;;;17.23;15.70;;;;;;;17.49;74.75;100436.63;10350505;28;20041;-57
2021/06/26 02:59:41;;;;;;;17.48;15.85;;;;;;;17.43;74.75;100439.13;10342508;28;20487;-58
2021/06/26 03:04:42;;;;;;;17.20;15.45;;;;;;;17.41;75.07;100433.91;10347737;28;20131;-57
2021/06/26 03:09:44;;;;;;;16.25;14.75;;;;;;;17.37;74.92;100435.25;10357137;28;20060;-55
2021/06/26 03:14:46;;;;;;;16.80;15.20;;;;;;;17.33;74.97;100433.88;10360284;28;20403;-57
2021/06/26 03:19:47;;;;;;;17.00;15.50;;;;;;;17.30;74.97;100428.84;10359489;28;20041;-56
2021/06/26 03:24:49;;;;;;;17.23;15.57;;;;;;;17.26;75.00;100441.78;10354631;28;20049;-54
2021/06/26 03:29:50;;;;;;;17.00;15.50;;;;;;;17.23;75.46;100442.06;10357173;28;20057;-58
2021/06/26 03:34:52;;;;;;;19.40;17.35;;;;;;;17.19;75.43;100438.06;10361209;28;20499;-56
2021/06/26 03:39:53;;;;;;;18.00;15.90;;;;;;;17.11;75.39;100419.19;10346033;28;20049;-57
2021/06/26 03:44:55;;;;;;;19.33;17.42;;;;;;;17.18;75.83;100444.44;10359973;28;20052;-57
2021/06/26 03:49:56;;;;;;;19.85;17.95;;;;;;;17.14;75.69;100440.38;10348814;28;20066;-58
2021/06/26 03:54:58;;;;;;;20.20;15.90;;;;;;;17.12;75.74;100442.38;10351874;28;20113;-55
2021/06/26 03:59:59;;;;;;;18.67;16.75;;;;;;;17.09;75.87;100440.84;10348063;28;20045;-54
2021/06/26 04:05:02;;;;;;;18.60;16.77;;;;;;;17.16;76.04;100446.44;10331446;28;20411;-55
2021/06/26 04:10:05;;;;;;;19.73;17.63;;;;;;;17.22;75.88;100451.16;10342587;28;20054;-57
2021/06/26 04:15:07;;;;;;;21.02;19.00;;;;;;;17.23;75.67;100463.59;10349565;28;20499;-60
2021/06/26 04:20:09;;;;;;;23.70;21.38;;;;;;;17.17;75.77;100441.91;10342461;28;20049;-55
2021/06/26 04:25:13;;;;;;;23.83;21.33;;;;;;;17.23;75.90;100462.75;10349514;28;20050;-56
2021/06/26 04:30:15;;;;;;;;;;;;;;;17.21;76.07;100454.84;10351407;28;20049;-55
2021/06/26 04:35:20;;;;;;;26.33;23.60;;;;;;;17.15;76.01;100447.44;10352502;28;19921;-56
2021/06/26 04:40:21;;;;;;;25.38;22.77;;;;;;;17.23;75.95;100454.69;10353337;28;20274;-55
2021/06/26 04:45:23;;;;;;;26.60;23.80;;;;;;;17.24;75.97;100464.47;10354818;28;21011;-57
2021/06/26 04:50:25;;;;;;;23.80;21.30;;;;;;;17.28;76.04;100461.28;10350982;28;20046;-56
2021/06/26 04:55:27;;;;;;;26.20;23.48;;;;;;;17.38;75.88;100471.06;10356670;28;20046;-56
2021/06/26 05:00:28;;;;;;;25.58;23.02;;;;;;;17.40;75.75;100469.91;10362904;28;20511;-57
2021/06/26 05:05:30;;;;;;;25.58;23.08;;;;;;;17.40;75.57;100471.72;10361760;28;20053;-56
2021/06/26 05:10:32;;;;;;;25.30;23.00;;;;;;;17.45;75.57;100472.94;10355287;28;20065;-55
2021/06/26 05:15:35;;;;;;;24.40;22.17;;;;;;;17.53;75.76;100472.13;10362442;28;20049;-56
2021/06/26 05:20:39;;;;;;;22.77;20.45;;;;;;;17.61;75.65;100474.84;10355171;28;20050;-55
2021/06/26 05:25:42;;;;;;;22.70;20.42;;;;;;;17.69;75.21;100473.19;10358646;28;20073;-57
2021/06/26 05:30:44;;;;;;;22.52;20.05;;;;;;;17.75;74.99;100477.91;10361720;28;20522;-57
2021/06/26 05:35:49;;;;;;;23.48;20.98;;;;;;;17.72;74.68;100472.84;10355743;28;20420;-57
2021/06/26 05:40:50;;;;;;;23.25;20.95;;;;;;;17.87;74.71;100476.59;10358267;28;20049;-57
2021/06/26 05:45:52;;;;;;;22.55;20.23;;;;;;;17.83;74.72;100459.06;10352076;28;20489;-53
2021/06/26 05:50:54;;;;;;;20.00;18.05;;;;;;;17.94;75.25;100472.25;10358470;28;20050;-55
2021/06/26 05:56:01;;;;;;;22.67;19.58;;;;;;;18.13;73.83;100487.22;10361974;28;20427;-56
2021/06/26 06:01:07;;;;;;;19.23;17.17;;;;;;;18.13;73.69;100481.00;10353698;28;20057;-55
2021/06/26 06:06:08;;;;;;;18.90;17.13;;;;;;;18.30;74.03;100488.09;10355318;28;20042;-56
2021/06/26 06:11:10;;;;;;;20.70;18.70;;;;;;;18.52;72.95;100501.91;10340953;28;20411;-55
2021/06/26 06:16:11;;;;;;;18.23;15.95;;;;;;;18.64;72.92;100494.31;10311815;28;20054;-56
2021/06/26 06:21:14;;;;;;;18.92;17.20;;;;;;;18.81;72.16;100497.81;10313855;28;20049;-59
2021/06/26 06:26:16;;;;;;;16.98;15.25;;;;;;;18.95;71.34;100497.16;10310608;28;20141;-57
2021/06/26 06:31:17;;;;;;;19.45;17.42;;;;;;;18.98;70.68;100495.97;10311622;28;20057;-55
2021/06/26 06:36:19;;;;;;;19.52;17.52;;;;;;;19.06;70.57;100510.25;10313282;28;20093;-55
2021/06/26 06:41:20;;;;;;;15.55;13.73;;;;;;;19.23;70.48;100511.06;10307536;28;20054;-59
2021/06/26 06:46:22;;;;;;;16.50;14.90;;;;;;;19.55;69.28;100511.13;10312158;28;20078;-56
2021/06/26 06:51:24;;;;;;;15.90;14.23;;;;;;;19.73;68.71;100511.69;10311140;28;20069;-54
2021/06/26 06:56:26;;;;;;;16.25;14.65;;;;;;;19.93;67.14;100506.69;10304337;28;20420;-57
2021/06/26 07:01:28;;;;;;;15.02;13.70;;;;;;;19.95;67.11;100499.25;10310548;28;20057;-59
2021/06/26 07:06:29;;;;;;;14.40;13.18;;;;;;;19.95;67.08;100495.69;10307711;28;20687;-55
2021/06/26 07:11:31;;;;;;;15.55;14.10;;;;;;;19.93;66.16;100495.88;10313206;28;20066;-57
2021/06/26 07:16:32;;;;;;;15.75;14.05;;;;;;;20.05;66.03;100492.78;10310404;28;20061;-54
2021/06/26 07:21:34;;;;;;;15.65;14.10;;;;;;;20.17;66.01;100482.41;10312276;28;20423;-57
2021/06/26 07:26:36;;;;;;;12.95;11.75;;;;;;;20.41;65.16;100476.78;10309516;28;20069;-58
2021/06/26 07:31:38;;;;;;;13.75;12.40;;;;;;;20.55;65.28;100477.00;10316310;28;20799;-54
2021/06/26 07:36:39;;;;;;;14.02;12.50;;;;;;;20.86;64.60;100479.59;10306229;28;20057;-57
2021/06/26 07:41:41;;;;;;;15.38;13.82;;;;;;;20.86;63.28;100485.00;10303564;28;20428;-59
2021/06/26 07:46:42;;;;;;;12.48;11.38;;;;;;;20.84;63.24;100470.81;10309310;28;20062;-56
2021/06/26 07:51:44;;;;;;;14.27;12.77;;;;;;;21.29;61.85;100476.22;10306030;28;20431;-60
2021/06/26 07:56:46;;;;;;;14.25;12.93;;;;;;;21.45;60.68;100478.72;10304428;28;20052;-59
2021/06/26 08:01:47;;;;;;;14.00;11.00;;;;;;;21.43;61.73;100472.66;10308901;28;20085;-59
2021/06/26 08:06:49;;;;;;;12.45;11.27;;;;;;;21.87;60.20;100462.75;10321834;28;20197;-56
2021/06/26 08:11:51;;;;;;;10.85;9.75;;;;;;;22.08;59.90;100459.19;10301679;28;20046;-56
2021/06/26 08:16:52;;;;;;;12.15;10.88;;;;;;;22.12;58.34;100463.22;10305149;28;20061;-55
2021/06/26 08:21:54;;;;;;;9.32;8.43;;;;;;;22.10;58.18;100451.72;10300264;28;20077;-57
2021/06/26 08:26:56;;;;;;;10.50;9.50;;;;;;;22.30;57.31;100456.50;10301145;28;20055;-59
2021/06/26 08:31:57;;;;;;;9.05;8.25;;;;;;;22.51;56.06;100453.75;10299680;28;20050;-60
2021/06/26 08:36:59;;;;;;;11.82;7.10;;;;;;;22.65;54.96;100443.00;10309681;28;20086;-56
2021/06/26 08:42:01;;;;;;;7.68;7.00;;;;;;;22.99;54.18;100444.88;10305707;28;20054;-56
2021/06/26 08:47:04;;;;;;;7.85;6.95;;;;;;;22.87;52.99;100439.19;10298880;28;20050;-55
2021/06/26 08:52:06;;;;;;;6.47;5.87;;;;;;;23.27;50.50;100430.44;10275978;28;20192;-57
2021/06/26 08:57:08;;;;;;;6.05;5.00;;;;;;;23.76;49.74;100436.63;10287862;28;20314;-56
2021/06/26 09:02:19;;;;;;;7.60;6.90;;;;;;;23.70;48.12;100419.25;10297632;28;20053;-55
2021/06/26 09:07:31;;;;;;;6.10;5.60;;;;;;;23.76;48.87;100431.19;10300368;28;20171;-57
2021/06/26 09:12:37;;;;;;;5.90;5.30;;;;;;;24.13;48.37;100423.53;10298695;28;20046;-56
2021/06/26 09:17:39;;;;;;;5.25;4.75;;;;;;;24.15;46.83;100430.41;10296579;28;20119;-55
2021/06/26 09:22:47;;;;;;;5.57;4.70;;;;;;;24.61;46.17;100433.38;10299339;28;20358;-54
2021/06/26 09:27:48;;;;;;;6.40;5.85;;;;;;;25.00;44.51;100432.44;10299730;28;20046;-56
2021/06/26 09:32:50;;;;;;;5.40;3.85;;;;;;;25.29;43.25;100424.78;10302654;28;20054;-56
2021/06/26 09:37:56;;;;;;;4.57;4.18;;;;;;;25.45;43.20;100434.38;10299331;28;20058;-56
2021/06/26 09:42:57;;;;;;;4.45;4.10;;;;;;;25.32;42.87;100418.09;10300669;28;20089;-56
2021/06/26 09:48:05;;;;;;;4.20;3.80;;;;;;;25.15;42.41;100424.00;10304445;28;20499;-58
2021/06/26 09:53:06;;;;;;;4.78;3.97;;;;;;;25.79;41.07;100415.09;10302944;28;20600;-57
2021/06/26 09:58:15;;;;;;;4.82;4.43;;;;;;;26.36;40.20;100424.13;10309643;28;20050;-57
2021/06/26 10:03:18;;;;;;;4.03;3.70;;;;;;;27.03;38.29;100418.00;10305712;28;20042;-59
2021/06/26 10:08:21;;;;;;;4.30;3.90;;;;;;;26.43;39.89;100416.69;10306072;28;20057;-55
2021/06/26 10:13:23;;;;;;;5.57;4.20;;;;;;;26.09;40.60;100413.44;10309201;28;20065;-56
2021/06/26 10:18:25;;;;;;;4.88;4.32;;;;;;;26.37;39.85;100405.88;10304689;28;20042;-56
2021/06/26 10:23:34;;;;;;;4.20;3.30;;;;;;;26.68;38.34;100395.91;10308456;28;20062;-57
2021/06/26 10:28:47;;;;;;;3.95;3.47;;;;;;;27.40;36.49;100398.00;10309929;28;20054;-56
2021/06/26 10:33:48;;;;;;;3.25;2.95;;;;;;;27.55;36.54;100392.97;10315182;28;20649;-55
2021/06/26 10:38:50;;;;;;;5.43;4.25;;;;;;;27.52;35.99;100388.78;10306828;28;20054;-55
2021/06/26 10:43:59;;;;;;;4.03;3.25;;;;;;;27.72;36.26;100378.63;10309386;28;20138;-56
2021/06/26 10:49:06;;;;;;;5.72;3.58;;;;;;;27.97;35.46;100373.84;10309332;28;20054;-56
2021/06/26 10:54:16;;;;;;;4.13;3.78;;;;;;;28.29;34.46;100380.88;10305183;28;20057;-56
2021/06/26 10:59:19;;;;;;;4.40;4.05;;;;;;;28.19;33.83;100381.44;10302628;28;20057;-56
2021/06/26 11:04:22;;;;;;;3.80;3.22;;;;;;;28.12;34.92;100370.63;10311606;28;20054;-55
2021/06/26 11:09:53;;;;;;;5.13;3.55;;;;;;;28.33;34.74;100371.09;10304177;28;20378;-56
2021/06/26 11:14:57;;;;;;;3.95;3.58;;;;;;;28.61;34.52;100366.81;10307508;28;20050;-56
2021/06/26 11:19:59;;;;;;;4.35;3.45;;;;;;;28.91;35.08;100370.22;10305962;28;20043;-56
2021/06/26 11:25:01;;;;;;;3.90;3.60;;;;;;;29.44;33.00;100370.19;10306798;28;20824;-56
2021/06/26 11:30:05;;;;;;;;;;;;;;;29.03;32.91;100372.09;10310349;28;20046;-55
2021/06/26 11:35:09;;;;;;;5.75;4.68;;;;;;;28.83;35.10;100359.63;10314786;28;19925;-55
2021/06/26 11:40:14;;;;;;;4.85;4.47;;;;;;;28.73;35.25;100360.28;10305629;28;20072;-55
2021/06/26 11:45:17;;;;;;;3.90;3.60;;;;;;;28.97;34.63;100357.44;10313191;28;20458;-55
2021/06/26 11:50:19;;;;;;;3.55;3.25;;;;;;;28.96;34.62;100352.22;10301742;28;20057;-56
2021/06/26 11:55:20;;;;;;;3.30;3.10;;;;;;;28.69;36.91;100347.28;10306640;28;20575;-56
2021/06/26 12:00:22;;;;;;;3.83;3.53;;;;;;;28.18;35.33;100342.31;10302688;28;20054;-56
2021/06/26 12:05:23;;;;;;;5.00;3.57;;;;;;;27.39;36.04;100353.44;10302266;28;20629;-55
2021/06/26 12:10:26;;;;;;;4.30;3.57;;;;;;;27.56;35.62;100347.31;10303905;28;20093;-56
2021/06/26 12:15:28;;;;;;;5.53;3.42;;;;;;;27.56;35.39;100333.66;10300890;28;20046;-55
2021/06/26 12:20:36;;;;;;;4.07;3.67;;;;;;;27.79;35.76;100333.69;10306087;28;20057;-56
2021/06/26 12:25:41;;;;;;;3.75;3.28;;;;;;;28.87;33.85;100336.16;10310076;28;20049;-56
2021/06/26 12:30:43;;;;;;;3.88;3.58;;;;;;;29.61;33.10;100342.78;10305555;28;20491;-56
2021/06/26 12:35:45;;;;;;;3.65;3.35;;;;;;;29.38;33.01;100333.59;10298483;28;20062;-56
2021/06/26 12:40:47;;;;;;;3.88;3.58;;;;;;;28.95;33.68;100332.22;10304206;28;20081;-55
2021/06/26 12:45:52;;;;;;;3.53;3.22;;;;;;;28.88;34.34;100340.56;10309224;28;20124;-56
2021/06/26 12:51:18;;;;;;;3.30;3.10;;;;;;;29.06;33.40;100335.97;10320195;28;20133;-57
2021/06/26 12:56:22;;;;;;;3.35;3.05;;;;;;;29.23;33.58;100331.41;10308899;28;20054;-57
2021/06/26 13:01:35;;;;;;;3.83;3.35;;;;;;;29.30;32.49;100330.44;10303928;28;20403;-55
2021/06/26 13:06:57;;;;;;;3.78;3.47;;;;;;;28.86;32.28;100319.97;10307447;28;20054;-55
2021/06/26 13:12:19;;;;;;;3.65;3.45;;;;;;;28.63;34.00;100316.22;10307041;28;20601;-56
2021/06/26 13:17:22;;;;;;;3.53;3.25;;;;;;;28.94;32.55;100316.84;10313960;28;20215;-57
2021/06/26 13:22:25;;;;;;;4.32;3.92;;;;;;;28.97;33.59;100315.53;10312144;28;20425;-57
2021/06/26 13:27:26;;;;;;;3.83;3.53;;;;;;;29.04;34.38;100308.00;10308789;28;20061;-55
2021/06/26 13:32:28;;;;;;;4.40;3.47;;;;;;;28.88;34.60;100307.69;10311063;28;20073;-57
2021/06/26 13:37:29;;;;;;;4.30;3.53;;;;;;;28.56;33.97;100299.91;10310286;28;20510;-57
2021/06/26 13:42:31;;;;;;;3.80;3.50;;;;;;;28.77;34.34;100286.66;10313250;28;20057;-57
2021/06/26 13:47:33;;;;;;;5.13;3.47;;;;;;;28.82;33.48;100286.75;10313491;28;20058;-57
2021/06/26 13:52:34;;;;;;;4.13;3.47;;;;;;;28.96;34.50;100291.94;10310019;28;20043;-56
2021/06/26 13:57:36;;;;;;;3.20;3.00;;;;;;;28.90;33.04;100278.16;10309634;28;20069;-56
2021/06/26 14:02:37;;;;;;;3.93;3.63;;;;;;;28.85;34.07;100280.78;10310749;28;20586;-57
2021/06/26 14:07:39;;;;;;;3.78;3.47;;;;;;;28.85;33.97;100286.25;10309559;28;20066;-54
2021/06/26 14:12:41;;;;;;;5.93;3.70;;;;;;;28.75;33.00;100280.59;10308898;28;20054;-56
2021/06/26 14:17:43;;;;;;;4.03;3.63;;;;;;;28.59;33.85;100281.34;10311937;28;20057;-56
2021/06/26 14:22:45;;;;;;;3.27;2.97;;;;;;;28.59;33.38;100276.69;10305227;28;20057;-56
2021/06/26 14:27:46;;;;;;;4.72;3.90;;;;;;;28.63;33.08;100266.09;10304006;28;20104;-56
2021/06/26 14:32:49;;;;;;;4.03;3.43;;;;;;;28.67;34.54;100273.59;10309932;28;20053;-56
2021/06/26 14:37:51;;;;;;;3.83;3.42;;;;;;;28.59;34.90;100256.69;10309976;28;20523;-57
2021/06/26 14:42:53;;;;;;;5.00;3.73;;;;;;;28.46;35.06;100266.00;10316397;28;20054;-56
2021/06/26 14:47:55;;;;;;;5.37;3.97;;;;;;;28.26;35.32;100260.94;10305487;28;20077;-60
2021/06/26 14:52:57;;;;;;;;;;;;;;;27.89;35.56;100255.69;10306656;28;20051;-55
2021/06/26 14:57:58;;;;;;;4.30;3.90;;;;;;;27.52;37.15;100234.91;10306988;28;19936;-55
2021/06/26 15:03:00;;;;;;;4.78;3.72;;;;;;;27.13;37.23;100227.06;10305219;28;20054;-58
2021/06/26 15:08:01;;;;;;;4.30;3.87;;;;;;;27.14;37.35;100226.00;10310498;28;20721;-56
2021/06/26 15:13:03;;;;;;;3.80;3.50;;;;;;;27.32;36.99;100226.97;10315005;28;20479;-56
2021/06/26 15:18:05;;;;;;;4.07;3.77;;;;;;;27.43;37.73;100223.47;10315645;28;20046;-56
2021/06/26 15:23:07;;;;;;;4.40;4.00;;;;;;;27.49;35.62;100228.00;10311653;28;20058;-56
2021/06/26 15:28:09;;;;;;;3.42;3.13;;;;;;;27.39;35.86;100197.66;10310178;28;20491;-56
2021/06/26 15:33:10;;;;;;;4.05;3.70;;;;;;;27.05;36.75;100196.50;10309169;28;20046;-54
2021/06/26 15:38:12;;;;;;;3.90;3.60;;;;;;;27.14;37.10;100201.41;10303795;28;20877;-56
2021/06/26 15:43:14;;;;;;;4.57;3.40;;;;;;;27.13;37.05;100205.22;10293348;28;20313;-58
2021/06/26 15:48:15;;;;;;;4.55;3.97;;;;;;;26.94;36.31;100206.34;10308582;28;20045;-54
2021/06/26 15:53:17;;;;;;;3.70;3.40;;;;;;;26.57;37.09;100206.41;10305769;28;20620;-56
2021/06/26 15:58:19;;;;;;;3.80;3.50;;;;;;;26.62;37.65;100195.66;10297899;28;20052;-55
2021/06/26 16:03:21;;;;;;;3.97;3.50;;;;;;;26.66;37.15;100196.81;10301853;28;20046;-57
2021/06/26 16:08:22;;;;;;;4.63;3.10;;;;;;;26.84;37.19;100203.34;10308339;28;20124;-56
2021/06/26 16:13:24;;;;;;;3.83;3.53;;;;;;;26.89;37.63;100198.84;10310738;28;20058;-55
2021/06/26 16:18:30;;;;;;;2.80;2.55;;;;;;;26.97;36.87;100197.69;10309454;28;20576;-57
2021/06/26 16:23:32;;;;;;;2.80;2.60;;;;;;;27.00;36.00;100194.47;10306589;28;20519;-60
2021/06/26 16:28:34;;;;;;;3.80;3.25;;;;;;;27.12;35.79;100197.25;10309775;28;20512;-56
2021/06/26 16:33:36;;;;;;;4.67;2.67;;;;;;;27.03;36.23;100160.41;10311046;28;20068;-54
2021/06/26 16:38:54;;;;;;;5.13;2.78;;;;;;;27.22;36.34;100180.25;10310575;28;20062;-58
2021/06/26 16:43:56;;;;;;;3.53;2.97;;;;;;;26.98;36.54;100153.75;10305412;28;20775;-55
2021/06/26 16:48:57;;;;;;;2.58;2.38;;;;;;;27.15;36.77;100181.22;10304132;28;20046;-63
2021/06/26 16:53:59;;;;;;;5.25;3.45;;;;;;;27.01;37.40;100179.78;10315841;28;20043;-63
2021/06/26 16:59:01;;;;;;;4.53;3.45;;;;;;;27.01;38.54;100174.31;10308411;28;21474;-61
2021/06/26 17:04:02;;;;;;;6.65;3.72;;;;;;;26.95;38.86;100172.53;10311423;28;20129;-57
2021/06/26 17:09:04;;;;;;;5.20;3.28;;;;;;;26.77;38.50;100167.97;10310968;28;20762;-56
2021/06/26 17:14:06;;;;;;;3.53;3.22;;;;;;;26.56;38.85;100144.72;10313659;28;20080;-60
2021/06/26 17:19:07;;;;;;;3.70;3.40;;;;;;;26.38;39.20;100165.50;10304760;28;20886;-58
2021/06/26 17:24:11;;;;;;;3.25;3.05;;;;;;;26.14;39.49;100161.84;10306043;28;20526;-54
2021/06/26 17:29:13;;;;;;;3.15;2.92;;;;;;;25.97;39.34;100167.03;10308324;28;20041;-55
2021/06/26 17:34:15;;;;;;;5.97;3.25;;;;;;;25.77;39.34;100157.16;10307348;28;20064;-56
2021/06/26 17:39:16;;;;;;;3.33;3.03;;;;;;;25.70;39.89;100175.50;10306932;28;20477;-56
2021/06/26 17:44:18;;;;;;;4.88;4.40;;;;;;;25.66;40.06;100173.47;10308482;28;20053;-54
2021/06/26 17:49:19;;;;;;;3.10;2.90;;;;;;;25.63;40.00;100180.19;10307131;28;20058;-54
2021/06/26 17:54:21;;;;;;;3.63;3.30;;;;;;;25.57;40.20;100183.81;10306133;28;20053;-54
2021/06/26 17:59:22;;;;;;;4.03;3.42;;;;;;;25.50;39.94;100180.31;10304680;28;20049;-54
2021/06/26 18:04:25;;;;;;;3.78;3.47;;;;;;;25.41;40.06;100188.75;10301563;28;20054;-52
2021/06/26 18:09:29;;;;;;;5.55;4.78;;;;;;;25.33;40.73;100186.31;10305031;28;20094;-54
2021/06/26 18:14:30;;;;;;;5.43;4.80;;;;;;;25.26;41.01;100185.50;10306234;28;20061;-54
2021/06/26 18:19:33;;;;;;;6.20;4.25;;;;;;;25.18;40.95;100193.97;10306744;28;20042;-56
2021/06/26 18:24:35;;;;;;;;;;;;;;;25.13;40.27;100191.06;10310862;28;20762;-56
2021/06/26 18:29:37;;;;;;;4.00;3.60;;;;;;;25.05;41.38;100187.53;10306518;28;19932;-55
2021/06/26 18:34:38;;;;;;;4.07;3.72;;;;;;;24.91;40.97;100177.81;10304646;28;20061;-55
2021/06/26 18:39:40;;;;;;;4.15;3.60;;;;;;;24.85;41.52;100179.53;10306139;28;20388;-56
2021/06/26 18:44:41;;;;;;;3.67;3.38;;;;;;;24.76;42.25;100185.47;10305498;28;20062;-56
2021/06/26 18:49:43;;;;;;;3.65;3.30;;;;;;;24.68;42.49;100184.66;10302865;28;20054;-55
2021/06/26 18:54:45;;;;;;;3.42;3.13;;;;;;;24.53;43.11;100184.09;10305053;28;20069;-54
2021/06/26 18:59:46;;;;;;;3.30;3.00;;;;;;;24.42;43.15;100184.75;10306226;28;20053;-58
2021/06/26 19:04:48;;;;;;;4.53;4.15;;;;;;;24.42;43.27;100190.22;10307320;28;20046;-56
2021/06/26 19:09:50;;;;;;;3.97;3.13;;;;;;;24.31;43.46;100195.28;10306337;28;20619;-55
2021/06/26 19:14:52;;;;;;;5.38;3.90;;;;;;;24.20;43.58;100190.53;10306109;28;20053;-57
2021/06/26 19:19:55;;;;;;;4.43;3.47;;;;;;;23.95;44.10;100196.63;10299845;28;20507;-56
2021/06/26 19:24:56;;;;;;;3.60;2.97;;;;;;;23.89;44.18;100189.34;10307115;28;20054;-57
2021/06/26 19:29:58;;;;;;;2.95;2.75;;;;;;;23.89;43.98;100197.50;10299824;28;20056;-55
2021/06/26 19:35:00;;;;;;;3.10;2.80;;;;;;;23.84;44.02;100205.44;10304040;28;20053;-53
2021/06/26 19:40:03;;;;;;;3.72;3.38;;;;;;;23.75;44.26;100209.41;10301610;28;20057;-55
2021/06/26 19:45:06;;;;;;;3.70;3.07;;;;;;;23.72;44.65;100217.97;10306352;28;20707;-55
2021/06/26 19:50:09;;;;;;;3.90;3.33;;;;;;;23.67;45.10;100231.38;10312378;28;20408;-55
2021/06/26 19:55:12;;;;;;;3.88;3.42;;;;;;;23.55;45.57;100221.13;10298628;28;20061;-55
2021/06/26 20:00:16;;;;;;;4.33;3.90;;;;;;;23.46;46.85;100230.53;10302708;28;20046;-56
2021/06/26 20:05:18;;;;;;;4.75;4.35;;;;;;;23.43;47.14;100237.22;10304696;28;20057;-55
2021/06/26 20:10:21;;;;;;;6.25;4.78;;;;;;;23.40;47.59;100247.66;10302436;28;20050;-55
2021/06/26 20:15:23;;;;;;;5.43;4.93;;;;;;;23.33;48.39;100233.25;10310655;28;20058;-56
2021/06/26 20:20:25;;;;;;;6.45;5.95;;;;;;;23.23;48.73;100233.66;10301739;28;20092;-59
2021/06/26 20:25:26;;;;;;;6.50;5.90;;;;;;;23.11;49.30;100228.00;10302343;28;20408;-55
2021/06/26 20:30:28;;;;;;;6.28;5.78;;;;;;;23.18;49.66;100249.72;10303019;28;20054;-54
2021/06/26 20:35:30;;;;;;;6.65;6.05;;;;;;;23.14;50.58;100257.44;10306833;28;20076;-56
2021/06/26 20:40:32;;;;;;;6.50;5.90;;;;;;;23.08;50.72;100255.53;10335652;28;20042;-54
2021/06/26 20:45:34;;;;;;;6.28;5.78;;;;;;;23.02;51.17;100250.94;10337884;28;20443;-55
2021/06/26 20:50:36;;;;;;;6.65;6.05;;;;;;;22.88;51.80;100244.63;10332697;28;20054;-54
2021/06/26 20:55:38;;;;;;;8.30;6.83;;;;;;;22.92;52.19;100273.88;10350111;28;20096;-54
2021/06/26 21:00:40;;;;;;;8.98;8.18;;;;;;;22.87;52.56;100262.78;10353444;28;20049;-54
2021/06/26 21:05:42;;;;;;;8.37;7.50;;;;;;;;;;10347837;28;20499;-54
2021/06/26 21:10:47;;;;;;;7.45;6.80;;;;;;;22.80;53.11;100263.81;10347921;28;20050;-55
2021/06/26 21:15:49;;;;;;;7.22;6.70;;;;;;;22.75;53.43;100264.41;10355742;28;20053;-55
2021/06/26 21:20:52;;;;;;;7.35;6.72;;;;;;;22.73;53.69;100272.75;10356023;28;20587;-54
2021/06/26 21:25:53;;;;;;;7.60;6.95;;;;;;;22.72;53.92;100270.25;10347164;28;20054;-55
2021/06/26 21:30:55;;;;;;;7.32;6.60;;;;;;;22.67;53.98;100265.44;10357550;28;20419;-54
2021/06/26 21:35:56;;;;;;;7.45;6.85;;;;;;;22.60;54.22;100259.97;10356758;28;20057;-61
2021/06/26 21:40:58;;;;;;;7.43;6.82;;;;;;;22.54;54.26;100260.78;10355845;28;20053;-55
2021/06/26 21:46:00;;;;;;;7.55;6.95;;;;;;;22.45;54.71;100251.16;10353275;28;20056;-55
2021/06/26 21:51:01;;;;;;;7.40;6.70;;;;;;;22.41;54.92;100252.59;10349075;28;20049;-57
2021/06/26 21:56:19;;;;;;;7.15;6.45;;;;;;;22.41;54.82;100255.28;10358611;28;20054;-56
2021/06/26 22:01:24;;;;;;;8.82;7.85;;;;;;;22.38;55.40;100256.56;10361672;28;20048;-55
2021/06/26 22:06:25;;;;;;;8.20;7.50;;;;;;;22.30;55.21;100248.53;10355466;28;20130;-57
2021/06/26 22:11:27;;;;;;;8.73;8.02;;;;;;;22.30;55.43;100247.72;10358437;28;20057;-56
2021/06/26 22:16:31;;;;;;;10.13;9.13;;;;;;;22.24;55.72;100250.16;10345316;28;20395;-56
2021/06/26 22:21:34;;;;;;;9.38;8.48;;;;;;;22.21;55.90;100250.56;10351264;28;20111;-55
2021/06/26 22:26:35;;;;;;;8.27;7.60;;;;;;;22.16;55.96;100247.63;10348349;28;20065;-53
2021/06/26 22:31:37;;;;;;;7.10;6.55;;;;;;;22.13;56.04;100253.47;10352376;28;20046;-56
2021/06/26 22:36:38;;;;;;;7.38;6.68;;;;;;;22.05;56.37;100240.91;10365357;28;20061;-56
2021/06/26 22:41:40;;;;;;;7.85;7.15;;;;;;;21.98;56.77;100241.88;10361515;28;20166;-55
2021/06/26 22:46:41;;;;;;;6.93;6.40;;;;;;;21.94;56.64;100246.03;10351298;28;20059;-56
2021/06/26 22:51:43;;;;;;;6.72;6.13;;;;;;;21.87;57.44;100249.56;10355095;28;20049;-53
2021/06/26 22:56:45;;;;;;;6.75;6.15;;;;;;;21.78;57.21;100245.28;10355204;28;20052;-54
2021/06/26 23:01:46;;;;;;;7.53;6.93;;;;;;;21.72;57.66;100251.50;10349987;28;20055;-57